Time;durP1;ratioP1;P1;durP2;ratioP2;P2;SDS_P1;SDS_P2;PMS_P1;PMS_P2;Temp;Humidity;BMP_temperature;BMP_pressure;BME280_temperature;BME280_humidity;BME280_pressure;Samples;Min_cycle;Max_cycle;Signal;HPM_P1;HPM_P2
2022/06/10 00:00:59;;;;;;;6.77;4.80;;;;;;;18.16;84.94;99799.91;1462556;88;21411;-82
2022/06/10 00:03:28;;;;;;;11.60;5.13;;;;;;;18.19;84.33;99796.00;1467928;87;23821;-82
2022/06/10 00:05:59;;;;;;;13.37;6.23;;;;;;;18.20;84.72;99805.66;1469589;88;22551;-82
2022/06/10 00:08:30;;;;;;;6.67;4.50;;;;;;;18.25;84.75;99799.97;1458199;88;21842;-83
2022/06/10 00:10:58;;;;;;;7.93;4.03;;;;;;;18.27;84.78;99805.13;1469023;88;21420;-83
2022/06/10 00:13:28;;;;;;;11.73;5.60;;;;;;;18.31;85.19;99802.84;1454343;88;21390;-83
2022/06/10 00:15:56;;;;;;;7.37;4.45;;;;;;;18.35;85.04;99811.56;1460638;88;21420;-83
2022/06/10 00:18:25;;;;;;;7.57;4.90;;;;;;;18.37;84.94;99815.38;1458080;88;21449;-83
2022/06/10 00:20:51;;;;;;;8.80;5.50;;;;;;;18.41;85.13;99817.92;1466874;88;21382;-82
2022/06/10 00:23:18;;;;;;;7.50;4.60;;;;;;;18.34;85.47;99819.30;1465911;88;21481;-81
2022/06/10 00:25:45;;;;;;;8.80;4.87;;;;;;;18.31;86.13;99817.05;1470631;88;21904;-81
2022/06/10 00:28:13;;;;;;;7.97;4.73;;;;;;;18.31;86.59;99821.59;1466538;88;22294;-81
2022/06/10 00:30:40;;;;;;;13.03;5.03;;;;;;;18.29;86.58;99823.66;1522131;88;22146;-81
2022/06/10 00:33:09;;;;;;;8.33;4.85;;;;;;;18.24;86.72;99817.09;1539026;88;21282;-81
2022/06/10 00:35:35;;;;;;;8.90;5.20;;;;;;;18.29;86.36;99811.59;1416209;88;22492;-81
2022/06/10 00:38:03;;;;;;;8.27;4.47;;;;;;;18.28;86.35;99820.16;1471319;88;21570;-81
2022/06/10 00:40:34;;;;;;;6.93;5.00;;;;;;;18.29;86.74;99819.63;1476167;88;21389;-81
2022/06/10 00:43:01;;;;;;;10.03;5.47;;;;;;;18.29;86.57;99831.16;1448296;90;21963;-81
2022/06/10 00:45:53;;;;;;;7.17;4.57;;;;;;;18.30;86.51;99836.84;1458091;88;22364;-81
2022/06/10 00:49:00;;;;;;;8.73;4.90;;;;;;;18.31;86.93;99834.46;1468764;88;21503;-81
2022/06/10 00:51:44;;;;;;;8.60;4.90;;;;;;;18.30;87.17;99840.87;1469676;88;21349;-82
2022/06/10 00:54:31;;;;;;;6.73;4.63;;;;;;;18.31;86.62;99839.81;1462570;88;22412;-81
2022/06/10 00:57:20;;;;;;;17.47;5.40;;;;;;;18.29;86.90;99832.50;1461240;87;21520;-81
2022/06/10 00:59:54;;;;;;;8.93;5.53;;;;;;;18.29;87.21;99837.86;1491623;87;21387;-81
2022/06/10 01:02:26;;;;;;;11.00;5.30;;;;;;;18.28;87.96;99833.55;1478073;87;21462;-81
2022/06/10 01:04:57;;;;;;;6.00;4.97;;;;;;;18.25;87.62;99836.13;1487780;87;21420;-81
2022/06/10 01:07:28;;;;;;;11.00;5.93;;;;;;;18.26;87.57;99840.97;1491547;87;22150;-81
2022/06/10 01:09:55;;;;;;;11.27;5.33;;;;;;;18.25;87.69;99848.70;1488788;87;21395;-81
2022/06/10 01:12:36;;;;;;;10.07;5.20;;;;;;;18.26;87.53;99846.33;1487430;87;21936;-82
2022/06/10 01:15:13;;;;;;;13.08;5.85;;;;;;;18.23;87.91;99848.09;1482010;87;21628;-82
2022/06/10 01:18:23;;;;;;;8.50;4.83;;;;;;;18.26;87.26;99849.00;1492535;87;22392;-81
2022/06/10 01:21:29;;;;;;;5.50;4.67;;;;;;;18.26;86.66;99849.00;1480274;87;21605;-82
2022/06/10 01:24:46;;;;;;;7.77;4.67;;;;;;;18.18;86.82;99843.88;1478332;87;21329;-82
2022/06/10 01:27:48;;;;;;;6.00;4.33;;;;;;;18.13;86.81;99845.05;1478587;87;21347;-82
2022/06/10 01:30:46;;;;;;;9.80;4.77;;;;;;;18.07;86.86;99844.53;1482848;87;22292;-82
2022/06/10 01:33:27;;;;;;;6.17;4.73;;;;;;;18.01;87.46;99840.34;1484849;87;23382;-81
2022/06/10 01:36:07;;;;;;;9.70;4.90;;;;;;;18.02;86.87;99843.31;1489881;87;21523;-82
2022/06/10 01:38:48;;;;;;;15.58;5.87;;;;;;;18.02;87.22;99840.64;1471059;87;21472;-81
2022/06/10 01:41:29;;;;;;;6.17;4.43;;;;;;;17.99;86.58;99838.38;1493451;87;21516;-81
2022/06/10 01:44:31;;;;;;;7.77;4.40;;;;;;;17.96;86.10;99841.48;1486301;87;22389;-81
2022/06/10 01:47:21;;;;;;;8.90;4.93;;;;;;;17.91;85.40;99841.80;1492092;87;21544;-81
2022/06/10 01:49:58;;;;;;;6.03;4.10;;;;;;;17.85;84.24;99852.83;1480072;87;22303;-81
2022/06/10 01:52:33;;;;;;;7.57;4.50;;;;;;;17.83;83.66;99857.56;1488243;87;21399;-82
2022/06/10 01:55:33;;;;;;;7.47;4.10;;;;;;;17.83;83.65;99854.88;1486268;87;21417;-82
2022/06/10 01:58:22;;;;;;;9.20;4.17;;;;;;;17.81;83.11;99855.63;1473472;86;21566;-82
2022/06/10 02:00:53;;;;;;;11.07;4.67;;;;;;;17.79;82.70;99860.36;1458467;86;21455;-84
2022/06/10 02:03:25;;;;;;;10.57;4.97;;;;;;;17.78;82.49;99865.39;1472800;88;21551;-83
2022/06/10 02:06:00;;;;;;;9.33;4.37;;;;;;;17.73;82.46;99857.97;1471744;88;22453;-83
2022/06/10 02:08:47;;;;;;;7.93;3.97;;;;;;;17.67;82.44;99862.00;1469948;88;21404;-82
2022/06/10 02:11:18;;;;;;;9.17;4.00;;;;;;;17.58;82.66;99856.86;1445955;88;21635;-84
2022/06/10 02:13:56;;;;;;;6.13;3.90;;;;;;;17.61;82.57;99864.99;1475823;88;22479;-84
2022/06/10 02:16:27;;;;;;;6.23;4.80;;;;;;;17.58;82.71;99866.22;1480637;88;21418;-83
2022/06/10 02:19:08;;;;;;;11.37;6.03;;;;;;;17.53;83.15;99863.86;1481421;88;21403;-84
2022/06/10 02:21:48;;;;;;;5.75;4.55;;;;;;;17.57;82.68;99873.11;1479486;88;21930;-84
2022/06/10 02:24:24;;;;;;;;;;;;;;;17.53;83.41;99879.39;1469594;88;22291;-84
2022/06/10 02:26:52;;;;;;;10.70;4.80;;;;;;;17.48;83.86;99878.36;1471664;88;20304;-84
2022/06/10 02:29:27;;;;;;;11.37;5.10;;;;;;;17.46;84.39;99885.77;1470159;88;21451;-82
2022/06/10 02:31:57;;;;;;;5.77;4.60;;;;;;;17.42;84.79;99891.22;1473463;88;21405;-83
2022/06/10 02:34:25;;;;;;;7.10;4.03;;;;;;;17.43;84.39;99894.20;1472731;88;21581;-81
2022/06/10 02:36:59;;;;;;;11.70;5.73;;;;;;;17.41;84.83;99890.41;1477437;88;22432;-83
2022/06/10 02:39:37;;;;;;;11.47;5.00;;;;;;;17.43;84.79;99904.38;1471524;88;22395;-82
2022/06/10 02:42:14;;;;;;;12.80;5.63;;;;;;;17.44;84.79;99900.70;1475224;88;21636;-82
2022/06/10 02:44:58;;;;;;;10.97;5.77;;;;;;;17.43;85.69;99904.38;1472946;88;21602;-82
2022/06/10 02:47:45;;;;;;;10.10;5.43;;;;;;;17.44;84.85;99918.08;1456120;88;21459;-83
2022/06/10 02:50:13;;;;;;;6.37;4.30;;;;;;;17.45;85.45;99913.03;1468934;88;22291;-83
2022/06/10 02:52:40;;;;;;;7.33;5.70;;;;;;;17.47;84.96;99929.70;1473519;88;22268;-83
2022/06/10 02:55:20;;;;;;;7.70;4.60;;;;;;;17.51;84.96;99927.44;1473538;88;21248;-83
2022/06/10 03:01:16;;;;;;;6.63;5.30;;;;;;;17.54;84.38;99938.55;1482059;88;21388;-83
2022/06/10 03:04:23;;;;;;;5.25;4.78;;;;;;;17.49;84.40;99946.39;1452644;89;21507;-83
2022/06/10 03:07:10;;;;;;;8.43;5.93;;;;;;;17.44;84.37;99944.02;1481072;88;21507;-82
2022/06/10 03:10:09;;;;;;;9.27;6.17;;;;;;;17.37;84.76;99951.48;1488008;88;22334;-82
2022/06/10 03:12:50;;;;;;;7.57;4.60;;;;;;;17.35;85.09;99960.25;1486540;88;21323;-84
2022/06/10 03:15:50;;;;;;;7.73;4.63;;;;;;;17.35;85.02;99958.09;1483519;88;21440;-83
2022/06/10 03:18:37;;;;;;;7.35;5.17;;;;;;;17.34;85.68;99964.45;1469146;88;21351;-84
2022/06/10 03:21:16;;;;;;;16.27;6.17;;;;;;;17.37;85.31;99960.03;1479504;88;23510;-84
2022/06/10 03:23:56;;;;;;;6.63;5.67;;;;;;;17.37;85.47;99962.70;1485372;88;21447;-84
2022/06/10 03:26:34;;;;;;;7.05;4.97;;;;;;;17.39;85.54;99959.84;1489732;88;21461;-84
2022/06/10 03:29:33;;;;;;;20.20;5.50;;;;;;;17.37;85.99;99964.05;1476471;88;21376;-85
2022/06/10 03:32:05;;;;;;;8.77;5.20;;;;;;;17.40;86.29;99966.31;1478836;87;21469;-84
2022/06/10 03:34:38;;;;;;;9.43;5.43;;;;;;;17.44;86.26;99968.91;1482974;88;22452;-84
2022/06/10 03:37:07;;;;;;;11.03;5.50;;;;;;;17.51;86.24;99975.08;1481138;88;21454;-84
2022/06/10 03:39:34;;;;;;;11.90;6.13;;;;;;;17.54;86.42;99977.34;1482073;88;21352;-83
2022/06/10 03:42:16;;;;;;;11.47;6.27;;;;;;;17.63;86.13;99979.83;1485487;88;22324;-83
2022/06/10 03:44:45;;;;;;;8.40;5.93;;;;;;;17.68;85.89;99986.22;1486467;88;22311;-83
2022/06/10 03:47:17;;;;;;;12.70;5.83;;;;;;;17.73;85.89;99991.78;1463426;88;22489;-84
2022/06/10 03:49:55;;;;;;;10.20;6.47;;;;;;;17.78;85.76;99989.36;1477774;88;21504;-82
2022/06/10 03:52:26;;;;;;;6.77;5.50;;;;;;;17.84;85.73;99989.05;1479869;88;21462;-83
2022/06/10 03:54:52;;;;;;;10.73;6.60;;;;;;;17.93;85.78;99989.67;1482668;88;21322;-83
2022/06/10 03:57:18;;;;;;;11.13;6.87;;;;;;;17.99;85.77;99982.96;1479305;88;21375;-82
2022/06/10 03:59:46;;;;;;;12.23;6.30;;;;;;;18.07;85.79;99989.12;1484047;87;21470;-81
2022/06/10 04:02:13;;;;;;;9.97;7.17;;;;;;;18.11;85.67;99985.84;1485510;87;21410;-81
2022/06/10 04:04:42;;;;;;;8.47;6.10;;;;;;;18.16;85.74;99988.72;1481474;87;21417;-82
2022/06/10 04:07:11;;;;;;;9.87;5.87;;;;;;;18.24;85.11;99995.70;1491257;87;21350;-81
2022/06/10 04:09:37;;;;;;;12.43;5.90;;;;;;;18.30;85.00;99992.21;1489138;87;21477;-82
2022/06/10 04:12:08;;;;;;;9.73;5.90;;;;;;;18.37;84.67;99994.87;1468542;87;21567;-81
2022/06/10 04:14:35;;;;;;;7.97;5.87;;;;;;;18.46;84.65;99997.11;1480218;87;21468;-82
2022/06/10 04:17:01;;;;;;;12.45;6.65;;;;;;;18.54;84.29;99999.27;1486458;87;21417;-82
2022/06/10 04:19:27;;;;;;;10.35;6.58;;;;;;;18.59;84.02;99994.92;1489174;87;21463;-83
2022/06/10 04:21:54;;;;;;;17.27;6.55;;;;;;;18.68;83.83;100002.22;1480518;87;21853;-83
2022/06/10 04:24:20;;;;;;;11.95;5.97;;;;;;;18.73;83.75;100001.08;1482310;87;22320;-82
2022/06/10 04:26:46;;;;;;;9.63;5.87;;;;;;;18.80;82.43;100005.91;1484491;87;21404;-82
2022/06/10 04:29:17;;;;;;;7.17;6.42;;;;;;;18.90;82.61;100010.33;1481082;86;21432;-83
2022/06/10 04:31:43;;;;;;;8.78;6.35;;;;;;;18.96;81.80;100005.12;1486296;87;21381;-81
2022/06/10 04:34:11;;;;;;;13.08;6.20;;;;;;;19.08;81.65;100007.47;1478362;87;21477;-83
2022/06/10 04:36:39;;;;;;;6.10;5.50;;;;;;;19.13;80.92;100007.13;1479793;87;21366;-81
2022/06/10 04:39:05;;;;;;;11.50;6.45;;;;;;;19.19;80.93;100009.48;1482235;87;21417;-83
2022/06/10 04:41:33;;;;;;;12.75;5.92;;;;;;;19.24;80.42;100006.95;1484246;87;21421;-84
2022/06/10 04:43:59;;;;;;;9.23;5.62;;;;;;;19.32;80.57;100004.02;1486794;87;21330;-83
2022/06/10 04:46:34;;;;;;;7.78;5.97;;;;;;;19.39;80.21;100009.34;1487278;87;21440;-84
2022/06/10 04:49:00;;;;;;;13.05;5.30;;;;;;;19.53;79.97;100008.75;1484615;87;21367;-81
2022/06/10 04:51:27;;;;;;;10.00;5.10;;;;;;;19.56;79.59;100006.48;1478011;87;21573;-82
2022/06/10 04:53:53;;;;;;;7.72;5.58;;;;;;;19.58;78.36;99999.01;1487081;87;21439;-81
2022/06/10 04:56:20;;;;;;;6.42;5.67;;;;;;;19.67;78.11;100002.28;1479218;87;21418;-82
2022/06/10 04:58:46;;;;;;;14.43;6.95;;;;;;;19.70;78.04;100007.22;1488613;87;22360;-82
2022/06/10 05:01:14;;;;;;;11.35;5.80;;;;;;;19.73;77.85;100005.44;1448441;88;21319;-82
2022/06/10 05:03:40;;;;;;;15.18;6.17;;;;;;;19.73;76.69;100010.80;1449588;88;21530;-84
2022/06/10 05:06:06;;;;;;;5.78;4.78;;;;;;;19.76;76.65;100015.73;1466847;88;21547;-82
2022/06/10 05:08:33;;;;;;;8.05;6.35;;;;;;;19.78;76.10;100019.03;1467855;88;21925;-83
2022/06/10 05:10:59;;;;;;;6.58;4.97;;;;;;;19.89;76.75;100020.73;1469955;88;21443;-81
2022/06/10 05:13:25;;;;;;;9.93;5.22;;;;;;;19.97;76.01;100021.80;1450522;88;21286;-82
2022/06/10 05:15:51;;;;;;;7.53;5.35;;;;;;;20.04;76.26;100025.25;1471256;88;21385;-84
2022/06/10 05:18:22;;;;;;;6.87;5.53;;;;;;;20.14;76.24;100017.53;1460580;88;21440;-84
2022/06/10 05:20:49;;;;;;;6.83;5.03;;;;;;;20.21;75.93;100029.02;1471650;88;21556;-84
2022/06/10 05:23:18;;;;;;;8.33;6.10;;;;;;;20.28;75.72;100025.77;1476326;88;22328;-82
2022/06/10 05:25:45;;;;;;;6.87;5.33;;;;;;;20.36;75.48;100030.55;1469734;88;21840;-81
2022/06/10 05:28:13;;;;;;;14.07;5.67;;;;;;;20.41;74.87;100036.09;1469922;88;22276;-82
2022/06/10 05:30:40;;;;;;;16.25;5.78;;;;;;;20.47;74.73;100029.81;1472172;88;21451;-83
2022/06/10 05:33:09;;;;;;;14.90;5.72;;;;;;;20.59;75.32;100028.59;1470953;88;23227;-85
2022/06/10 05:35:36;;;;;;;13.53;5.10;;;;;;;20.72;75.68;100038.69;1472183;88;21516;-82
2022/06/10 05:38:03;;;;;;;8.83;5.55;;;;;;;20.80;74.01;100038.08;1466060;88;22265;-82
2022/06/10 05:40:32;;;;;;;7.72;5.37;;;;;;;20.92;74.18;100040.34;1474069;88;21392;-82
2022/06/10 05:42:59;;;;;;;9.45;6.55;;;;;;;21.02;73.66;100041.96;1469718;88;21592;-80
2022/06/10 05:45:26;;;;;;;8.23;5.72;;;;;;;21.07;72.80;100038.08;1467699;88;21540;-80
2022/06/10 05:47:57;;;;;;;9.08;6.33;;;;;;;21.07;72.70;100034.57;1469114;88;22405;-81
2022/06/10 05:50:27;;;;;;;;;;;;;;;21.20;72.83;100035.73;1470395;88;21645;-81
2022/06/10 05:52:54;;;;;;;7.40;6.03;;;;;;;21.26;72.36;100039.38;1466365;88;20323;-81
2022/06/10 05:55:21;;;;;;;7.35;5.45;;;;;;;21.28;71.63;100039.98;1471920;88;21635;-81
2022/06/10 05:57:50;;;;;;;11.40;7.50;;;;;;;21.29;72.24;100042.97;1467547;88;21480;-82
2022/06/10 06:00:24;;;;;;;7.05;5.42;;;;;;;21.21;70.00;100047.34;1474326;87;21494;-82
2022/06/10 06:02:50;;;;;;;6.10;5.50;;;;;;;21.20;70.48;100047.84;1485078;88;21502;-82
2022/06/10 06:05:18;;;;;;;8.45;6.55;;;;;;;21.05;69.71;100044.20;1481357;85;21413;-82
2022/06/10 06:07:46;;;;;;;7.30;6.33;;;;;;;21.07;71.61;100050.19;1485007;88;21295;-83
2022/06/10 06:10:17;;;;;;;8.68;5.83;;;;;;;21.08;70.68;100045.09;1483420;87;21459;-81
2022/06/10 06:12:44;;;;;;;7.70;6.28;;;;;;;21.19;70.71;100047.55;1484498;88;21701;-81
2022/06/10 06:15:13;;;;;;;9.00;5.60;;;;;;;21.36;71.49;100043.72;1487024;87;22280;-83
2022/06/10 06:17:40;;;;;;;11.73;5.70;;;;;;;21.44;70.77;100042.61;1478124;87;21414;-81
2022/06/10 06:20:10;;;;;;;9.85;6.80;;;;;;;21.53;70.40;100046.09;1488047;87;21413;-81
2022/06/10 06:22:36;;;;;;;8.50;6.58;;;;;;;21.68;70.71;100034.89;1482150;88;21636;-81
2022/06/10 06:25:03;;;;;;;13.65;6.17;;;;;;;21.79;71.37;100035.98;1479462;86;21383;-81
2022/06/10 06:27:29;;;;;;;7.22;5.87;;;;;;;21.88;70.18;100037.28;1481983;87;21384;-82
2022/06/10 06:29:55;;;;;;;12.55;6.30;;;;;;;21.90;68.34;100033.84;1488020;87;21385;-81
2022/06/10 06:32:21;;;;;;;9.10;6.95;;;;;;;22.01;69.48;100041.13;1493455;87;21383;-82
2022/06/10 06:34:47;;;;;;;19.75;8.00;;;;;;;22.00;68.40;100044.86;1480720;88;21546;-80
2022/06/10 06:37:15;;;;;;;10.13;6.17;;;;;;;22.20;69.00;100053.18;1472323;87;21421;-82
2022/06/10 06:39:42;;;;;;;9.95;6.60;;;;;;;22.27;67.45;100056.59;1462865;88;21419;-81
2022/06/10 06:42:11;;;;;;;12.93;7.03;;;;;;;22.30;66.34;100064.22;1480276;88;21314;-82
2022/06/10 06:44:40;;;;;;;7.85;7.05;;;;;;;22.43;67.88;100061.27;1480097;87;21257;-81
2022/06/10 06:47:06;;;;;;;13.62;7.17;;;;;;;22.50;67.14;100065.22;1480675;88;21480;-81
2022/06/10 06:49:32;;;;;;;12.40;6.92;;;;;;;22.61;66.79;100071.64;1484294;88;21530;-81
2022/06/10 06:51:58;;;;;;;12.00;6.22;;;;;;;22.62;66.44;100074.13;1483348;88;21426;-83
2022/06/10 06:54:24;;;;;;;7.22;6.33;;;;;;;22.74;66.93;100070.06;1462029;88;22320;-81
2022/06/10 06:56:50;;;;;;;12.23;7.75;;;;;;;22.86;65.59;100075.44;1474861;88;21364;-81
2022/06/10 06:59:16;;;;;;;9.15;6.35;;;;;;;23.02;66.01;100072.05;1472457;88;21404;-80
2022/06/10 07:01:42;;;;;;;11.38;6.72;;;;;;;23.17;66.83;100069.66;1468211;88;21474;-80
2022/06/10 07:04:09;;;;;;;15.48;6.85;;;;;;;23.30;66.21;100072.59;1469315;88;22002;-81
2022/06/10 07:06:36;;;;;;;9.68;6.62;;;;;;;23.45;65.37;100073.95;1471081;88;22623;-80
2022/06/10 07:09:04;;;;;;;9.20;6.28;;;;;;;23.51;64.90;100074.36;1474316;88;21463;-81
2022/06/10 07:11:31;;;;;;;15.60;6.47;;;;;;;23.54;63.85;100061.72;1458580;88;21507;-83
2022/06/10 07:13:58;;;;;;;13.35;6.85;;;;;;;23.46;62.33;100068.86;1435732;89;21875;-81
2022/06/10 07:16:25;;;;;;;10.88;6.47;;;;;;;23.39;62.62;100064.92;1433723;89;22292;-81
2022/06/10 07:18:52;;;;;;;11.95;7.45;;;;;;;23.36;63.93;100066.77;1453080;89;21471;-81
2022/06/10 07:21:19;;;;;;;15.50;6.75;;;;;;;23.46;65.40;100064.80;1452826;89;21405;-81
2022/06/10 07:23:45;;;;;;;13.43;6.90;;;;;;;23.57;64.40;100058.54;1460682;89;21478;-81
2022/06/10 07:26:11;;;;;;;8.58;6.85;;;;;;;23.67;63.43;100061.94;1456295;89;21389;-80
2022/06/10 07:28:38;;;;;;;10.63;7.25;;;;;;;23.77;63.40;100062.98;1454322;89;21411;-80
2022/06/10 07:31:04;;;;;;;14.73;6.53;;;;;;;23.87;63.66;100065.84;1452996;89;22343;-80
2022/06/10 07:33:30;;;;;;;18.62;6.25;;;;;;;23.99;62.39;100068.48;1453793;89;21411;-80
2022/06/10 07:35:57;;;;;;;12.00;7.87;;;;;;;24.11;62.21;100069.78;1459334;89;21456;-80
2022/06/10 07:38:24;;;;;;;9.63;5.42;;;;;;;24.32;62.35;100073.62;1450875;89;22358;-81
2022/06/10 07:43:35;;;;;;;12.88;6.65;;;;;;;24.40;60.80;100069.66;1457284;89;21329;-80
2022/06/10 07:46:04;;;;;;;10.98;7.20;;;;;;;24.29;59.90;100070.87;1449646;89;21397;-80
2022/06/10 07:48:31;;;;;;;10.75;7.22;;;;;;;24.30;60.39;100071.68;1446123;89;21409;-80
2022/06/10 07:50:58;;;;;;;8.00;6.85;;;;;;;24.47;60.95;100069.81;1460484;89;21404;-81
2022/06/10 07:53:24;;;;;;;8.65;5.65;;;;;;;24.47;59.08;100083.88;1454912;89;21492;-81
2022/06/10 07:55:50;;;;;;;13.65;6.25;;;;;;;24.54;59.78;100075.04;1467451;89;23136;-81
2022/06/10 07:58:19;;;;;;;12.75;6.25;;;;;;;24.68;61.00;100085.80;1452977;89;21470;-81
2022/06/10 08:00:46;;;;;;;7.25;5.67;;;;;;;24.86;59.86;100078.45;1450858;89;21515;-80
2022/06/10 08:03:13;;;;;;;12.15;6.70;;;;;;;25.00;59.29;100078.38;1451818;90;21405;-80
2022/06/10 08:05:39;;;;;;;9.23;6.97;;;;;;;25.15;59.00;100079.16;1449879;89;21779;-80
2022/06/10 08:08:05;;;;;;;7.97;6.30;;;;;;;25.20;58.60;100080.55;1453446;90;21390;-80
2022/06/10 08:10:36;;;;;;;7.03;5.90;;;;;;;25.35;58.57;100089.41;1442862;89;21427;-81
2022/06/10 08:13:04;;;;;;;12.73;6.80;;;;;;;25.51;58.45;100089.03;1447876;89;21450;-80
2022/06/10 08:15:31;;;;;;;11.53;6.75;;;;;;;25.67;58.43;100085.42;1445174;89;21428;-81
2022/06/10 08:17:58;;;;;;;8.73;7.05;;;;;;;25.66;56.51;100085.96;1446038;89;21517;-80
2022/06/10 08:23:22;;;;;;;14.95;7.20;;;;;;;25.76;58.52;100084.42;1443843;89;22432;-82
2022/06/10 08:25:49;;;;;;;12.07;7.60;;;;;;;25.70;58.30;100086.80;1445413;89;21351;-82
2022/06/10 08:28:16;;;;;;;7.53;6.65;;;;;;;25.67;57.87;100086.77;1445621;90;21464;-83
2022/06/10 08:30:42;;;;;;;7.25;5.95;;;;;;;25.61;56.54;100085.09;1444094;89;22587;-82
2022/06/10 08:33:08;;;;;;;12.00;6.28;;;;;;;25.46;55.55;100093.84;1454154;89;21368;-82
2022/06/10 08:35:36;;;;;;;7.62;6.78;;;;;;;25.47;57.19;100091.44;1477899;88;22524;-90
2022/06/10 08:38:06;;;;;;;20.17;6.78;;;;;;;25.63;57.77;100090.51;1477586;88;23091;-96
2022/06/10 08:41:00;;;;;;;8.98;7.62;;;;;;;25.80;57.59;100089.59;1462014;88;21405;-88
2022/06/10 08:44:07;;;;;;;9.73;6.65;;;;;;;25.77;55.80;100095.53;1448515;88;22514;-90
2022/06/10 08:47:14;;;;;;;8.60;6.30;;;;;;;26.03;56.69;100098.78;1477410;88;21531;-91
2022/06/10 08:50:12;;;;;;;13.90;6.67;;;;;;;26.19;55.18;100100.30;1470108;88;21520;-88
2022/06/10 08:53:27;;;;;;;14.15;6.70;;;;;;;25.93;54.18;100094.64;1466535;87;21435;-91
2022/06/10 08:56:07;;;;;;;18.77;6.30;;;;;;;26.01;54.14;100095.53;1471269;87;22353;-89
2022/06/10 08:59:06;;;;;;;15.32;6.75;;;;;;;25.98;54.36;100089.27;1472062;88;22345;-90
2022/06/10 09:01:50;;;;;;;8.23;6.62;;;;;;;26.14;54.84;100093.46;1477974;86;21443;-93
2022/06/10 09:04:52;;;;;;;9.93;5.70;;;;;;;26.24;53.25;100097.59;1465167;88;22036;-89
2022/06/10 09:07:42;;;;;;;9.88;5.97;;;;;;;26.35;53.64;100099.31;1465268;88;22050;-89
2022/06/10 09:10:34;;;;;;;6.92;5.20;;;;;;;26.54;53.59;100092.98;1459507;88;21605;-89
2022/06/10 09:13:34;;;;;;;8.73;6.22;;;;;;;26.72;52.69;100097.97;1472137;88;21604;-90
2022/06/10 09:16:42;;;;;;;6.83;5.50;;;;;;;26.76;51.94;100101.00;1467989;88;21317;-88
2022/06/10 09:19:39;;;;;;;11.30;6.05;;;;;;;26.93;53.24;100092.64;1405106;92;22142;-89
2022/06/10 09:22:22;;;;;;;7.78;6.33;;;;;;;26.90;51.98;100092.66;1417319;92;21450;-83
2022/06/10 09:25:17;;;;;;;6.30;5.50;;;;;;;27.03;52.25;100100.86;1411709;92;21495;-83
2022/06/10 09:27:48;;;;;;;11.33;5.90;;;;;;;27.06;51.73;100098.97;1410789;92;22432;-87
2022/06/10 09:30:19;;;;;;;13.10;5.47;;;;;;;27.06;51.53;100099.52;1405319;92;21634;-85
2022/06/10 09:32:59;;;;;;;17.07;6.22;;;;;;;27.08;51.12;100098.17;1420299;92;22189;-86
2022/06/10 09:35:43;;;;;;;7.17;5.35;;;;;;;27.08;50.91;100098.72;1405656;91;21561;-84
2022/06/10 09:38:37;;;;;;;34.40;6.40;;;;;;;27.05;49.87;100095.17;1414759;92;21509;-84
2022/06/10 09:41:49;;;;;;;7.58;5.10;;;;;;;27.29;51.45;100098.28;1408786;90;21612;-84
2022/06/10 09:44:36;;;;;;;9.78;5.95;;;;;;;27.47;50.04;100088.27;1409089;92;21630;-84
2022/06/10 09:47:31;;;;;;;6.22;5.62;;;;;;;27.72;50.21;100096.22;1411412;92;22664;-85
2022/06/10 09:50:15;;;;;;;11.53;5.53;;;;;;;27.92;50.00;100090.84;1414405;91;21405;-84
2022/06/10 09:53:03;;;;;;;7.00;4.70;;;;;;;27.89;47.98;100081.31;1409101;92;21709;-85
2022/06/10 09:55:46;;;;;;;9.33;4.83;;;;;;;28.04;49.17;100084.58;1454682;88;21513;-85
2022/06/10 09:58:36;;;;;;;11.63;6.05;;;;;;;28.11;47.35;100085.69;1479811;87;22432;-84
2022/06/10 10:01:20;;;;;;;11.70;6.15;;;;;;;28.19;48.08;100083.76;1473890;87;21573;-84
2022/06/10 10:04:31;;;;;;;15.05;6.35;;;;;;;28.33;47.66;100083.48;1476285;87;22304;-86
2022/06/10 10:07:35;;;;;;;8.38;5.42;;;;;;;28.35;47.27;100078.59;1475412;87;22474;-88
2022/06/10 10:10:25;;;;;;;9.68;5.75;;;;;;;28.13;45.96;100078.86;1475935;88;21529;-85
2022/06/10 10:13:13;;;;;;;6.72;5.17;;;;;;;28.31;47.74;100079.39;1480668;88;21634;-84
2022/06/10 10:15:49;;;;;;;8.35;5.15;;;;;;;28.45;46.43;100078.33;1484362;86;21425;-85
2022/06/10 10:18:33;;;;;;;6.87;5.20;;;;;;;28.65;46.11;100087.00;1481062;87;22305;-85
2022/06/10 10:21:13;;;;;;;7.10;5.08;;;;;;;28.82;45.40;100079.33;1468347;87;21493;-84
2022/06/10 10:23:50;;;;;;;12.33;5.37;;;;;;;28.67;44.69;100080.19;1484854;88;21403;-84
2022/06/10 10:26:31;;;;;;;13.43;5.87;;;;;;;28.79;44.35;100084.78;1484926;87;22446;-85
2022/06/10 10:29:08;;;;;;;9.48;5.03;;;;;;;28.77;44.36;100082.90;1485319;87;21344;-83
2022/06/10 10:31:50;;;;;;;8.88;5.42;;;;;;;28.86;45.32;100076.86;1455179;89;21420;-85
2022/06/10 10:34:34;;;;;;;11.65;5.03;;;;;;;28.86;44.77;100072.77;1433715;90;22530;-85
2022/06/10 10:37:05;;;;;;;12.03;5.45;;;;;;;28.84;43.61;100070.34;1495490;88;21439;-84
2022/06/10 10:39:38;;;;;;;17.80;5.37;;;;;;;28.87;44.96;100070.34;1491527;87;22513;-84
2022/06/10 10:42:16;;;;;;;7.72;4.35;;;;;;;28.72;43.52;100070.66;1475040;88;22558;-84
2022/06/10 10:44:53;;;;;;;10.55;5.10;;;;;;;28.85;44.49;100058.89;1483572;88;22188;-83
2022/06/10 10:47:26;;;;;;;9.40;5.05;;;;;;;28.96;44.65;100062.66;1486158;87;21547;-86
2022/06/10 10:50:21;;;;;;;9.23;5.08;;;;;;;29.12;43.05;100064.83;1482838;88;21321;-85
2022/06/10 10:52:48;;;;;;;7.92;4.90;;;;;;;29.17;43.47;100057.16;1479934;87;22341;-86
2022/06/10 10:55:26;;;;;;;6.75;4.83;;;;;;;29.29;43.51;100052.73;1483886;88;21491;-85
2022/06/10 10:58:00;;;;;;;9.58;5.37;;;;;;;29.42;43.36;100053.48;1483996;88;21388;-85
2022/06/10 11:00:32;;;;;;;10.15;4.30;;;;;;;29.61;42.48;100050.37;1475436;86;22335;-85
2022/06/10 11:03:01;;;;;;;7.37;4.87;;;;;;;29.84;40.81;100046.69;1479012;86;21669;-85
2022/06/10 11:05:38;;;;;;;4.92;4.42;;;;;;;29.88;40.63;100046.38;1472332;87;22386;-85
2022/06/10 11:08:13;;;;;;;10.63;5.50;;;;;;;29.96;39.95;100040.31;1480748;87;22365;-84
2022/06/10 11:11:10;;;;;;;8.68;4.55;;;;;;;29.87;41.22;100041.47;1487111;87;21403;-87
2022/06/10 11:14:04;;;;;;;12.47;4.70;;;;;;;29.78;40.75;100044.55;1476167;86;22365;-87
2022/06/10 11:16:36;;;;;;;11.78;5.72;;;;;;;29.87;41.91;100035.20;1482467;87;21440;-85
2022/06/10 11:19:16;;;;;;;8.80;4.22;;;;;;;29.84;42.43;100032.50;1487811;86;22317;-86
2022/06/10 11:22:05;;;;;;;6.95;4.28;;;;;;;29.69;40.53;100031.23;1478943;87;21417;-84
2022/06/10 11:24:37;;;;;;;10.10;4.55;;;;;;;29.55;40.82;100021.52;1455543;87;21434;-84
2022/06/10 11:27:27;;;;;;;9.90;4.25;;;;;;;29.61;40.32;100025.83;1486345;85;21374;-85
2022/06/10 11:30:14;;;;;;;4.40;3.72;;;;;;;29.60;38.74;100026.91;1488221;87;21557;-85
2022/06/10 11:32:49;;;;;;;8.45;4.55;;;;;;;29.82;38.80;100018.88;1490012;86;21527;-87
2022/06/10 11:35:38;;;;;;;6.58;4.85;;;;;;;30.09;39.43;100017.80;1487003;86;21440;-84
2022/06/10 11:38:21;;;;;;;5.45;3.83;;;;;;;30.00;38.61;100016.80;1486707;87;21440;-86
2022/06/10 11:40:58;;;;;;;9.35;4.53;;;;;;;29.82;37.99;100003.88;1484703;88;21529;-85
2022/06/10 11:43:33;;;;;;;9.08;4.37;;;;;;;29.50;39.39;100007.91;1495053;87;21396;-85
2022/06/10 11:46:19;;;;;;;6.25;4.80;;;;;;;29.70;40.94;100005.61;1504944;87;21374;-85
2022/06/10 11:49:32;;;;;;;8.43;4.53;;;;;;;29.76;40.44;99991.39;1460157;88;21375;-84
2022/06/10 12:00:03;;;;;;;8.65;3.90;;;;;;;29.60;40.12;99981.11;1438539;90;21429;-84
2022/06/10 12:02:55;;;;;;;10.18;4.50;;;;;;;30.10;41.05;99980.44;1430071;90;21619;-85
2022/06/10 12:05:45;;;;;;;5.17;3.77;;;;;;;30.32;40.17;99974.48;1472013;87;21330;-85
2022/06/10 12:08:49;;;;;;;11.75;4.15;;;;;;;30.14;39.15;99970.00;1459525;87;21344;-86
2022/06/10 12:11:47;;;;;;;6.47;3.98;;;;;;;30.06;39.31;99974.72;1471247;87;21525;-86
2022/06/10 12:14:34;;;;;;;9.10;3.65;;;;;;;29.93;39.66;99969.95;1455643;87;22191;-88
2022/06/10 12:17:30;;;;;;;7.85;4.42;;;;;;;29.73;39.67;99975.59;1440020;90;21368;-85
2022/06/10 12:20:01;;;;;;;5.25;4.03;;;;;;;29.92;40.15;99973.77;1478678;86;21456;-84
2022/06/10 12:22:28;;;;;;;10.05;4.33;;;;;;;30.13;39.09;99975.21;1472367;87;21418;-83
2022/06/10 12:24:56;;;;;;;4.10;3.33;;;;;;;30.03;38.96;99976.66;1467800;87;21533;-86